Time;durP1;ratioP1;P1;durP2;ratioP2;P2;SDS_P1;SDS_P2;PMS_P1;PMS_P2;Temp;Humidity;BMP_temperature;BMP_pressure;BME280_temperature;BME280_humidity;BME280_pressure;Samples;Min_cycle;Max_cycle;Signal;HPM_P1;HPM_P2
2021/11/15 00:01:43;;;;;;;26.65;13.43;;;;;;;5.62;100.00;96927.56;4991377;28;20038;-63
2021/11/15 00:04:14;;;;;;;27.35;12.93;;;;;;;5.62;100.00;96924.84;4978300;28;20069;-62
2021/11/15 00:06:40;;;;;;;30.67;14.20;;;;;;;5.60;100.00;96916.22;4971217;28;20038;-63
2021/11/15 00:09:06;;;;;;;28.52;12.55;;;;;;;5.59;100.00;96920.09;4959585;28;20054;-62
2021/11/15 00:11:32;;;;;;;28.60;12.80;;;;;;;5.59;100.00;96929.03;4979341;28;20094;-64
2021/11/15 00:13:57;;;;;;;25.90;13.02;;;;;;;5.58;100.00;96927.41;4977061;28;20065;-63
2021/11/15 00:16:23;;;;;;;26.63;12.95;;;;;;;5.56;100.00;96924.25;4978292;28;20097;-64
2021/11/15 00:18:48;;;;;;;24.40;11.23;;;;;;;5.61;100.00;96913.19;4981930;28;20046;-64
2021/11/15 00:21:14;;;;;;;27.73;11.77;;;;;;;5.61;100.00;96923.28;4977357;28;20046;-62
2021/11/15 00:23:39;;;;;;;22.80;11.35;;;;;;;5.57;100.00;96931.28;4981840;28;20372;-65
2021/11/15 00:26:05;;;;;;;24.63;12.07;;;;;;;5.55;100.00;96920.75;4976729;28;20408;-61
2021/11/15 00:28:30;;;;;;;24.02;11.52;;;;;;;5.57;100.00;96922.34;4981468;28;20391;-63
2021/11/15 00:30:56;;;;;;;29.33;12.15;;;;;;;5.54;100.00;96919.13;4983232;28;20047;-62
2021/11/15 00:33:21;;;;;;;23.45;12.65;;;;;;;5.54;100.00;96921.84;4978553;28;20062;-64
2021/11/15 00:35:47;;;;;;;24.88;11.70;;;;;;;5.54;100.00;96921.84;4983560;28;20483;-62
2021/11/15 00:38:12;;;;;;;19.77;10.35;;;;;;;5.51;100.00;96917.09;4977179;28;20038;-64
2021/11/15 00:40:38;;;;;;;23.17;11.43;;;;;;;5.50;100.00;96920.13;4980680;28;20096;-64
2021/11/15 00:43:04;;;;;;;21.63;9.95;;;;;;;5.51;100.00;96921.72;4977426;28;20101;-61
2021/11/15 00:45:30;;;;;;;22.23;10.15;;;;;;;5.51;100.00;96916.28;4981042;28;20050;-63
2021/11/15 00:47:55;;;;;;;21.88;11.05;;;;;;;5.52;100.00;96913.22;4982743;28;20053;-62
2021/11/15 00:50:22;;;;;;;18.85;9.52;;;;;;;5.44;100.00;96916.00;4978644;28;20042;-63
2021/11/15 00:52:49;;;;;;;23.95;10.68;;;;;;;5.43;100.00;96922.56;4982380;28;20482;-67
2021/11/15 00:55:15;;;;;;;20.25;10.45;;;;;;;5.41;100.00;96922.88;4977915;28;20089;-62
2021/11/15 00:57:42;;;;;;;21.40;10.60;;;;;;;5.39;100.00;96921.63;4979588;28;20069;-65
2021/11/15 01:00:11;;;;;;;23.73;11.60;;;;;;;5.40;100.00;96910.41;4977471;28;20662;-62
2021/11/15 01:02:37;;;;;;;23.75;11.38;;;;;;;5.36;100.00;96914.91;4980325;28;20399;-64
2021/11/15 01:05:04;;;;;;;26.90;11.98;;;;;;;5.41;100.00;96916.66;4981664;28;20043;-62
2021/11/15 01:07:29;;;;;;;25.67;12.40;;;;;;;5.35;100.00;96922.28;4982401;28;20054;-64
2021/11/15 01:09:55;;;;;;;24.67;12.05;;;;;;;5.40;100.00;96923.22;4980301;28;20049;-64
2021/11/15 01:12:20;;;;;;;23.98;12.27;;;;;;;5.34;100.00;96926.09;4983772;28;20077;-64
2021/11/15 01:14:46;;;;;;;27.52;12.60;;;;;;;5.33;100.00;96921.81;4990729;28;20100;-60
2021/11/15 01:17:13;;;;;;;31.48;13.25;;;;;;;5.39;100.00;96918.91;4983666;28;20037;-63
2021/11/15 01:19:39;;;;;;;27.33;14.07;;;;;;;5.42;100.00;96918.25;4998363;28;20046;-63
2021/11/15 01:22:04;;;;;;;29.05;12.40;;;;;;;5.35;100.00;96921.50;4977847;28;20398;-62
2021/11/15 01:24:30;;;;;;;27.48;13.90;;;;;;;5.35;100.00;96927.72;4988639;28;20078;-63
2021/11/15 01:26:55;;;;;;;28.42;13.90;;;;;;;5.33;100.00;96916.38;4984608;28;20050;-62
2021/11/15 01:29:21;;;;;;;29.55;14.32;;;;;;;5.35;100.00;96907.91;4984566;28;20046;-61
2021/11/15 01:31:46;;;;;;;29.92;14.57;;;;;;;5.27;100.00;96914.16;4991338;28;20630;-63
2021/11/15 01:34:12;;;;;;;33.22;13.60;;;;;;;5.25;100.00;96919.13;4979321;28;20050;-63
2021/11/15 01:36:38;;;;;;;31.20;13.80;;;;;;;5.24;100.00;96917.53;4982410;28;20038;-62
2021/11/15 01:39:05;;;;;;;23.25;12.80;;;;;;;5.24;100.00;96923.78;4978579;28;20034;-61
2021/11/15 01:41:31;;;;;;;34.33;15.18;;;;;;;5.25;100.00;96919.13;4981633;28;20128;-61
2021/11/15 01:43:58;;;;;;;36.90;15.52;;;;;;;5.17;100.00;96909.91;4988721;28;20042;-63
2021/11/15 01:46:23;;;;;;;32.00;16.75;;;;;;;5.09;100.00;96918.88;4993194;28;20066;-63
2021/11/15 01:48:49;;;;;;;35.38;15.55;;;;;;;5.10;100.00;96928.63;4983868;28;20034;-63
2021/11/15 01:51:15;;;;;;;34.08;16.65;;;;;;;5.16;100.00;96928.09;4975322;28;20042;-63
2021/11/15 01:53:41;;;;;;;29.77;13.60;;;;;;;5.11;100.00;96922.88;4981536;28;20093;-62
2021/11/15 01:56:06;;;;;;;35.75;16.35;;;;;;;5.12;100.00;96920.94;4977048;28;20133;-62
2021/11/15 01:58:32;;;;;;;27.90;14.23;;;;;;;5.04;100.00;96919.88;4985221;28;20053;-62
2021/11/15 02:00:59;;;;;;;35.15;16.80;;;;;;;5.02;100.00;96916.66;4983799;28;20054;-61
2021/11/15 02:03:27;;;;;;;34.40;15.70;;;;;;;5.03;100.00;96917.47;4977366;28;20125;-62
2021/11/15 02:05:54;;;;;;;33.90;14.93;;;;;;;5.08;100.00;96915.38;4980026;28;20046;-63
2021/11/15 02:08:20;;;;;;;32.05;15.57;;;;;;;4.97;100.00;96917.66;4976217;28;20043;-62
2021/11/15 02:10:46;;;;;;;29.67;14.32;;;;;;;4.98;100.00;96911.06;4995135;28;20097;-63
2021/11/15 02:13:17;;;;;;;29.67;14.02;;;;;;;4.97;100.00;96909.50;4976892;28;20038;-63
2021/11/15 02:15:45;;;;;;;34.83;15.13;;;;;;;4.94;100.00;96910.16;4987823;28;20121;-61
2021/11/15 02:18:11;;;;;;;29.55;14.77;;;;;;;5.08;100.00;96909.16;4975359;28;20543;-62
2021/11/15 02:20:49;;;;;;;29.52;13.07;;;;;;;4.95;100.00;96914.47;4980434;28;20419;-62
2021/11/15 02:23:17;;;;;;;28.63;13.50;;;;;;;4.89;100.00;96910.31;4958463;28;20129;-61
2021/11/15 02:25:43;;;;;;;31.52;14.82;;;;;;;4.93;100.00;96907.75;4981135;28;20470;-62
2021/11/15 02:28:08;;;;;;;27.67;14.02;;;;;;;4.85;100.00;96903.94;4975263;28;20052;-62
2021/11/15 02:30:34;;;;;;;31.75;16.02;;;;;;;4.81;100.00;96902.19;4980869;28;20487;-62
2021/11/15 02:33:01;;;;;;;26.98;13.38;;;;;;;4.86;100.00;96899.31;4975038;28;20420;-62
2021/11/15 02:35:26;;;;;;;32.72;15.07;;;;;;;4.85;100.00;96895.81;4974274;28;20165;-63
2021/11/15 02:37:52;;;;;;;26.65;14.52;;;;;;;4.81;100.00;96897.59;4980359;28;20141;-62
2021/11/15 02:40:21;;;;;;;25.50;12.82;;;;;;;4.85;100.00;96898.53;4971737;28;20133;-61
2021/11/15 02:42:47;;;;;;;29.77;13.10;;;;;;;4.78;100.00;96890.09;4979674;28;20046;-61
2021/11/15 02:45:15;;;;;;;22.67;12.50;;;;;;;4.81;100.00;96892.16;4976025;28;20042;-63
2021/11/15 02:47:41;;;;;;;26.00;12.27;;;;;;;4.78;100.00;96898.22;4992490;28;20046;-63
2021/11/15 02:50:12;;;;;;;28.95;13.63;;;;;;;4.75;100.00;96894.25;4975132;28;20052;-61
2021/11/15 02:52:41;;;;;;;31.48;15.90;;;;;;;4.71;100.00;96889.78;4977453;28;20402;-62
2021/11/15 02:55:07;;;;;;;32.03;15.07;;;;;;;4.70;100.00;96889.00;4975049;28;20390;-63
2021/11/15 02:57:32;;;;;;;31.83;13.68;;;;;;;4.72;100.00;96892.19;4980131;28;20080;-62
2021/11/15 02:59:57;;;;;;;30.85;13.23;;;;;;;4.83;100.00;96894.56;4978902;28;20125;-62
2021/11/15 03:02:24;;;;;;;28.25;12.60;;;;;;;4.86;100.00;96896.59;4976778;28;20591;-66
2021/11/15 03:04:50;;;;;;;31.83;14.75;;;;;;;4.83;100.00;96886.41;4983401;28;20038;-61
2021/11/15 03:07:16;;;;;;;29.02;13.05;;;;;;;4.82;100.00;96890.22;4978695;28;20046;-63
2021/11/15 03:09:41;;;;;;;27.08;13.27;;;;;;;4.77;100.00;96883.88;4978019;28;20042;-61
2021/11/15 03:12:11;;;;;;;30.45;13.57;;;;;;;4.71;100.00;96906.06;4977867;28;20049;-61
2021/11/15 03:14:36;;;;;;;29.75;13.77;;;;;;;4.65;100.00;96893.81;4984050;28;20133;-62
2021/11/15 03:17:03;;;;;;;30.83;13.98;;;;;;;4.71;100.00;96890.56;4983780;28;20162;-61
2021/11/15 03:19:29;;;;;;;29.83;13.63;;;;;;;4.76;100.00;96900.47;4978395;28;20085;-63
2021/11/15 03:21:55;;;;;;;27.88;13.20;;;;;;;4.73;100.00;96893.75;4983662;28;20082;-62
2021/11/15 03:24:20;;;;;;;26.50;13.05;;;;;;;4.79;100.00;96888.97;4969628;28;20038;-61
2021/11/15 03:26:46;;;;;;;30.45;13.68;;;;;;;4.70;100.00;96885.47;4982721;28;20038;-62
2021/11/15 03:29:11;;;;;;;30.40;14.50;;;;;;;4.64;100.00;96892.19;4978074;28;20092;-61
2021/11/15 03:31:38;;;;;;;29.73;13.45;;;;;;;4.64;100.00;96900.34;4983020;28;20460;-62
2021/11/15 03:34:07;;;;;;;32.72;15.38;;;;;;;4.66;100.00;96906.22;4980114;28;20039;-61
2021/11/15 03:36:34;;;;;;;25.20;11.68;;;;;;;4.75;100.00;96888.81;4981766;28;20578;-62
2021/11/15 03:39:00;;;;;;;26.00;13.18;;;;;;;4.65;100.00;96896.50;4977738;28;20403;-62
2021/11/15 03:41:28;;;;;;;28.63;12.13;;;;;;;4.71;100.00;96903.34;4977915;28;20045;-63
2021/11/15 03:43:54;;;;;;;27.98;12.93;;;;;;;4.65;100.00;96901.94;4983223;28;20038;-62
2021/11/15 03:46:20;;;;;;;28.45;14.25;;;;;;;4.62;100.00;96905.28;4975019;28;20037;-62
2021/11/15 03:48:46;;;;;;;28.15;13.10;;;;;;;4.60;100.00;96900.97;4985875;28;20082;-64
2021/11/15 03:51:12;;;;;;;30.02;11.70;;;;;;;4.61;100.00;96896.38;4977805;28;20065;-64
2021/11/15 03:53:40;;;;;;;31.10;12.20;;;;;;;4.63;100.00;96882.44;4981668;28;20049;-64
2021/11/15 03:56:10;;;;;;;25.45;12.82;;;;;;;4.65;100.00;96893.81;4978606;28;20049;-63
2021/11/15 03:58:37;;;;;;;22.42;11.73;;;;;;;4.68;100.00;96890.44;4983592;28;20133;-64
2021/11/15 04:01:03;;;;;;;28.67;13.20;;;;;;;4.64;100.00;96898.41;4982160;28;20046;-62
2021/11/15 04:03:32;;;;;;;24.45;10.52;;;;;;;4.72;100.00;96894.88;4978309;28;20596;-64
2021/11/15 04:06:03;;;;;;;29.00;12.32;;;;;;;4.60;100.00;96906.41;4982768;28;20046;-63
2021/11/15 04:08:33;;;;;;;28.05;13.15;;;;;;;4.56;100.00;96894.59;4982069;28;20054;-62
2021/11/15 04:11:00;;;;;;;24.65;11.75;;;;;;;4.57;100.00;96896.22;4991976;28;20530;-62
2021/11/15 04:13:33;;;;;;;22.60;10.45;;;;;;;4.59;100.00;96904.81;4978454;28;20157;-62
2021/11/15 04:16:03;;;;;;;26.90;12.43;;;;;;;4.55;100.00;96900.34;4995005;28;20050;-63
2021/11/15 04:18:31;;;;;;;26.55;11.82;;;;;;;4.54;100.00;96912.34;4993898;28;20053;-61
2021/11/15 04:20:58;;;;;;;21.10;10.73;;;;;;;4.55;100.00;96905.78;4981791;28;20064;-61
2021/11/15 04:23:25;;;;;;;26.73;11.98;;;;;;;4.52;100.00;96893.66;4976428;28;20624;-62
2021/11/15 04:25:50;;;;;;;27.27;12.55;;;;;;;4.54;100.00;96896.06;4979629;28;20046;-63
2021/11/15 04:28:16;;;;;;;26.92;12.05;;;;;;;4.54;100.00;96893.34;4974736;28;20042;-62
2021/11/15 04:30:42;;;;;;;25.02;10.90;;;;;;;4.55;100.00;96903.84;4981426;28;20530;-62
2021/11/15 04:33:08;;;;;;;25.40;10.73;;;;;;;4.50;100.00;96895.91;4972939;28;20050;-61
2021/11/15 04:35:35;;;;;;;26.15;12.55;;;;;;;4.48;100.00;96906.25;4982887;28;20051;-62
2021/11/15 04:38:03;;;;;;;18.73;10.27;;;;;;;4.51;100.00;96904.84;4982979;28;20047;-64
2021/11/15 04:40:30;;;;;;;24.65;12.88;;;;;;;4.47;100.00;96904.69;4979813;28;20050;-63
2021/11/15 04:42:56;;;;;;;24.27;11.50;;;;;;;4.49;100.00;96902.44;4980720;28;20076;-63
2021/11/15 04:45:21;;;;;;;26.83;11.73;;;;;;;4.45;100.00;96895.25;4970082;28;20168;-65
2021/11/15 04:47:47;;;;;;;21.67;10.88;;;;;;;4.44;100.00;96902.59;4977263;28;20559;-63
2021/11/15 04:50:14;;;;;;;24.55;11.57;;;;;;;4.43;100.00;96900.22;4968890;28;20109;-64
2021/11/15 04:52:42;;;;;;;22.27;10.98;;;;;;;4.48;100.00;96889.97;4997586;28;20039;-63
2021/11/15 04:55:10;;;;;;;23.00;10.02;;;;;;;4.51;100.00;96900.19;4984314;28;20060;-63
2021/11/15 04:57:36;;;;;;;19.95;10.38;;;;;;;4.43;100.00;96890.19;4982531;28;20053;-63
2021/11/15 05:00:07;;;;;;;22.40;10.30;;;;;;;4.45;100.00;96887.94;4974764;28;20050;-59
2021/11/15 05:02:33;;;;;;;26.52;11.15;;;;;;;4.44;100.00;96889.03;4976231;28;20104;-62
2021/11/15 05:04:58;;;;;;;23.75;10.40;;;;;;;4.45;100.00;96890.66;4978285;28;20165;-63
2021/11/15 05:07:24;;;;;;;23.55;11.13;;;;;;;4.45;100.00;96885.22;4977435;28;20050;-62
2021/11/15 05:09:50;;;;;;;22.05;10.40;;;;;;;4.42;100.00;96896.72;4979156;28;20133;-61
2021/11/15 05:12:15;;;;;;;20.20;9.95;;;;;;;4.40;100.00;96883.47;4974800;28;20512;-63
2021/11/15 05:14:41;;;;;;;21.10;9.88;;;;;;;4.40;100.00;96896.22;4975352;28;20463;-63
2021/11/15 05:17:06;;;;;;;22.02;11.27;;;;;;;4.40;100.00;96888.09;4974274;28;20089;-63
2021/11/15 05:19:32;;;;;;;19.08;9.77;;;;;;;4.48;100.00;96886.47;4992804;28;20054;-64
2021/11/15 05:21:58;;;;;;;21.10;10.02;;;;;;;4.40;100.00;96886.19;4990664;28;20049;-63
2021/11/15 05:24:24;;;;;;;20.25;8.80;;;;;;;4.44;100.00;96878.19;4976137;28;20064;-63
2021/11/15 05:26:50;;;;;;;22.52;11.27;;;;;;;4.42;100.00;96885.06;4981221;28;20089;-62
2021/11/15 05:29:16;;;;;;;25.33;11.45;;;;;;;4.36;100.00;96892.59;4973944;28;20039;-62
2021/11/15 05:31:51;;;;;;;22.15;9.95;;;;;;;4.39;100.00;96894.63;4987395;28;20053;-62
2021/11/15 05:34:16;;;;;;;21.08;10.35;;;;;;;4.40;100.00;96882.69;4960146;28;20120;-62
2021/11/15 05:36:42;;;;;;;20.67;9.52;;;;;;;4.35;100.00;96888.25;4977207;28;20078;-61
2021/11/15 05:39:07;;;;;;;21.30;9.95;;;;;;;4.35;100.00;96893.69;4975367;28;20057;-62
2021/11/15 05:41:33;;;;;;;23.52;10.43;;;;;;;4.37;100.00;96892.22;4978949;28;20057;-63
2021/11/15 05:43:59;;;;;;;23.45;12.52;;;;;;;4.39;100.00;96891.91;4979509;28;20498;-63
2021/11/15 05:46:24;;;;;;;20.38;9.32;;;;;;;4.43;100.00;96895.59;4977855;28;20088;-61
2021/11/15 05:48:50;;;;;;;24.75;9.68;;;;;;;4.36;100.00;96898.00;4982107;28;20053;-64
2021/11/15 05:51:15;;;;;;;18.90;10.20;;;;;;;4.37;100.00;96905.00;4971352;28;20643;-63
2021/11/15 05:53:45;;;;;;;19.80;9.45;;;;;;;4.37;100.00;96916.63;4976966;28;20480;-64
2021/11/15 05:56:11;;;;;;;18.30;9.15;;;;;;;4.39;100.00;96908.19;4975308;28;20564;-65
2021/11/15 05:58:37;;;;;;;19.80;9.07;;;;;;;4.35;100.00;96913.47;4979810;28;20125;-63
2021/11/15 06:01:03;;;;;;;22.70;10.60;;;;;;;4.36;100.00;96923.19;4973396;28;20123;-63
2021/11/15 06:03:29;;;;;;;19.42;10.07;;;;;;;4.34;100.00;96919.19;4978170;28;20511;-63
2021/11/15 06:05:54;;;;;;;20.52;10.73;;;;;;;4.33;100.00;96917.63;4981308;28;20046;-64
2021/11/15 06:08:20;;;;;;;20.92;9.55;;;;;;;4.39;100.00;96916.31;4973692;28;20057;-64
2021/11/15 06:10:45;;;;;;;20.38;9.30;;;;;;;4.40;100.00;96921.44;4977049;28;20054;-63
2021/11/15 06:13:11;;;;;;;19.95;10.73;;;;;;;4.32;100.00;96913.31;4974089;28;20042;-64
2021/11/15 06:15:37;;;;;;;20.80;10.02;;;;;;;4.35;100.00;96921.59;4977997;28;20057;-63
2021/11/15 06:18:03;;;;;;;19.52;9.30;;;;;;;4.33;100.00;96918.41;4974414;28;20039;-63
2021/11/15 06:20:28;;;;;;;21.95;10.15;;;;;;;4.32;100.00;96922.25;4979825;28;20108;-63
2021/11/15 06:22:55;;;;;;;18.55;9.30;;;;;;;4.30;100.00;96924.47;4980969;28;20046;-62
2021/11/15 06:25:20;;;;;;;21.92;12.00;;;;;;;4.21;100.00;96913.66;4974098;28;20149;-64
2021/11/15 06:27:46;;;;;;;25.75;12.13;;;;;;;4.21;100.00;96929.09;4980914;28;20133;-64
2021/11/15 06:30:14;;;;;;;24.60;11.95;;;;;;;4.19;100.00;96940.25;4975337;28;20052;-64
2021/11/15 06:32:40;;;;;;;22.52;12.23;;;;;;;4.19;100.00;96929.41;4979552;28;20105;-63
2021/11/15 06:35:07;;;;;;;24.42;12.60;;;;;;;4.15;100.00;96930.38;4975670;28;20133;-61
2021/11/15 06:37:33;;;;;;;23.90;12.77;;;;;;;4.14;100.00;96942.34;4980906;28;20427;-64
2021/11/15 06:39:58;;;;;;;21.38;11.40;;;;;;;4.14;100.00;96929.59;4984876;28;20050;-63
2021/11/15 06:42:24;;;;;;;25.40;12.27;;;;;;;4.15;100.00;96947.44;4979319;28;20077;-62
2021/11/15 06:44:50;;;;;;;24.75;13.30;;;;;;;4.12;100.00;96944.56;4983114;28;20661;-62
2021/11/15 06:47:15;;;;;;;22.92;13.38;;;;;;;4.11;100.00;96946.50;4979078;28;20046;-62
2021/11/15 06:49:41;;;;;;;24.80;12.25;;;;;;;4.13;100.00;96946.97;4985138;28;20484;-61
2021/11/15 06:52:07;;;;;;;25.13;12.95;;;;;;;4.19;100.00;96953.03;4980357;28;20070;-63
2021/11/15 06:54:33;;;;;;;23.35;12.02;;;;;;;4.17;100.00;96960.69;4996278;28;20053;-62
2021/11/15 06:56:58;;;;;;;21.35;11.30;;;;;;;4.14;100.00;96962.13;4987150;28;20530;-64
2021/11/15 06:59:24;;;;;;;23.48;11.07;;;;;;;4.23;100.00;96964.81;4975986;28;20054;-63
2021/11/15 07:01:49;;;;;;;22.38;9.82;;;;;;;4.26;100.00;96960.69;4989494;28;20068;-63
2021/11/15 07:04:15;;;;;;;20.85;11.25;;;;;;;4.23;100.00;96956.69;4990681;28;20043;-63
2021/11/15 07:06:43;;;;;;;21.98;12.35;;;;;;;4.26;100.00;96968.81;4984827;28;20094;-61
2021/11/15 07:09:09;;;;;;;24.05;12.85;;;;;;;4.20;100.00;96966.25;4978734;28;20043;-61
2021/11/15 07:11:36;;;;;;;22.73;12.35;;;;;;;4.19;100.00;96969.28;4982944;28;20056;-62
2021/11/15 07:14:03;;;;;;;21.75;11.25;;;;;;;4.19;100.00;96970.06;4982276;28;20038;-62
2021/11/15 07:16:28;;;;;;;27.45;14.35;;;;;;;4.23;100.00;96972.94;4981076;28;20530;-63
2021/11/15 07:18:54;;;;;;;22.38;11.00;;;;;;;4.22;100.00;96974.09;4987725;28;20053;-63
2021/11/15 07:21:21;;;;;;;23.25;12.88;;;;;;;4.19;100.00;96975.50;4978904;28;20049;-63
2021/11/15 07:23:47;;;;;;;23.67;12.18;;;;;;;4.22;100.00;96979.50;4983221;28;20046;-64
2021/11/15 07:26:13;;;;;;;24.83;12.52;;;;;;;4.17;100.00;96961.47;4970614;28;20407;-63
2021/11/15 07:28:39;;;;;;;25.23;11.98;;;;;;;4.23;100.00;96970.25;4982015;28;20088;-64
2021/11/15 07:31:04;;;;;;;30.88;16.08;;;;;;;4.19;100.00;96978.22;4974893;28;20066;-62
2021/11/15 07:33:31;;;;;;;22.10;11.70;;;;;;;4.26;100.00;96980.47;4975680;28;20634;-64
2021/11/15 07:35:57;;;;;;;22.63;10.55;;;;;;;4.23;100.00;96972.94;4983139;28;20081;-63
2021/11/15 07:38:22;;;;;;;22.02;10.60;;;;;;;4.21;100.00;96967.06;4977696;28;20965;-63
2021/11/15 07:40:48;;;;;;;19.63;10.35;;;;;;;4.24;100.00;96979.19;4983649;28;20132;-63
2021/11/15 07:43:14;;;;;;;20.52;9.70;;;;;;;4.20;100.00;96981.75;4976885;28;20073;-64
2021/11/15 07:45:40;;;;;;;20.27;9.98;;;;;;;4.22;100.00;96974.09;4983027;28;20120;-64
2021/11/15 07:48:06;;;;;;;18.73;10.13;;;;;;;4.21;100.00;96978.72;4976246;28;20073;-63
2021/11/15 07:50:32;;;;;;;19.65;9.48;;;;;;;4.30;100.00;96981.41;4981969;28;20124;-63
2021/11/15 07:52:58;;;;;;;25.20;11.82;;;;;;;4.25;100.00;96972.63;4984815;28;20042;-64
2021/11/15 07:55:24;;;;;;;22.42;10.70;;;;;;;4.20;100.00;96976.31;4980081;28;20236;-63
2021/11/15 07:57:49;;;;;;;21.95;9.95;;;;;;;4.26;100.00;96983.16;4983297;28;20161;-63
2021/11/15 08:00:19;;;;;;;24.85;11.82;;;;;;;4.24;100.00;96990.81;4977289;28;20046;-63
2021/11/15 08:02:45;;;;;;;21.25;10.35;;;;;;;4.30;100.00;96981.41;4980226;28;20761;-65
2021/11/15 08:05:13;;;;;;;19.33;10.70;;;;;;;4.30;100.00;96977.91;4976827;28;20097;-63
2021/11/15 08:07:39;;;;;;;21.95;10.93;;;;;;;4.29;100.00;96984.47;4983427;28;20422;-64
2021/11/15 08:10:08;;;;;;;25.33;11.07;;;;;;;4.22;100.00;96974.88;4977626;28;20263;-62
2021/11/15 08:12:37;;;;;;;24.75;11.90;;;;;;;4.26;100.00;96987.81;4983174;28;20050;-64
2021/11/15 08:15:07;;;;;;;19.93;10.97;;;;;;;4.24;100.00;96987.31;4979459;28;20030;-62
2021/11/15 08:17:35;;;;;;;21.67;10.13;;;;;;;4.22;100.00;96983.00;4980209;28;20057;-63
2021/11/15 08:20:03;;;;;;;23.65;12.65;;;;;;;4.25;100.00;96980.78;4976962;28;20047;-63
2021/11/15 08:22:29;;;;;;;22.88;10.77;;;;;;;4.30;100.00;96961.63;4982106;28;20054;-63
2021/11/15 08:25:00;;;;;;;21.98;10.68;;;;;;;4.32;100.00;96978.38;4984107;28;20096;-61
2021/11/15 08:27:27;;;;;;;19.65;9.45;;;;;;;4.38;100.00;96980.63;4977812;28;20057;-63
2021/11/15 08:29:53;;;;;;;19.23;10.30;;;;;;;4.39;100.00;96995.78;4982187;28;20102;-64
2021/11/15 08:32:24;;;;;;;19.48;8.75;;;;;;;4.40;100.00;96989.22;4975860;28;20049;-62
2021/11/15 08:34:51;;;;;;;21.75;9.95;;;;;;;4.45;100.00;97001.03;4980660;28;20133;-63
2021/11/15 08:37:17;;;;;;;21.25;9.98;;;;;;;4.41;100.00;96995.44;4975626;28;20038;-64
2021/11/15 08:39:42;;;;;;;19.88;10.40;;;;;;;4.37;100.00;96999.91;4981317;28;20105;-64
2021/11/15 08:42:11;;;;;;;21.67;9.30;;;;;;;4.43;100.00;97001.38;4977556;28;20112;-64
2021/11/15 08:44:53;;;;;;;20.73;9.73;;;;;;;4.42;100.00;96996.25;4981859;28;20053;-64
2021/11/15 08:47:20;;;;;;;17.65;8.48;;;;;;;4.54;100.00;96997.22;4972516;28;20495;-65
2021/11/15 08:49:45;;;;;;;20.98;9.00;;;;;;;4.56;100.00;96988.75;4980720;28;20050;-63
2021/11/15 08:52:11;;;;;;;16.60;8.65;;;;;;;4.51;100.00;96987.00;4976141;28;20042;-64
2021/11/15 08:54:36;;;;;;;19.77;8.48;;;;;;;4.61;100.00;96991.31;4979841;28;20050;-65
2021/11/15 08:57:05;;;;;;;17.83;8.23;;;;;;;4.59;100.00;96996.25;4980054;28;20069;-62
2021/11/15 08:59:31;;;;;;;19.35;9.63;;;;;;;4.48;100.00;96995.75;4980952;28;20412;-63
2021/11/15 09:01:58;;;;;;;24.58;10.95;;;;;;;4.51;100.00;96992.41;4981615;28;20090;-64
2021/11/15 09:04:23;;;;;;;21.17;9.98;;;;;;;4.65;100.00;96999.63;4975679;28;20074;-62
2021/11/15 09:06:49;;;;;;;19.40;10.77;;;;;;;4.46;100.00;96994.50;4980039;28;20085;-64
2021/11/15 09:09:16;;;;;;;19.73;9.27;;;;;;;4.56;100.00;97005.84;4974291;28;20104;-64
2021/11/15 09:11:54;;;;;;;30.25;15.35;;;;;;;4.48;100.00;97003.91;4982092;28;20510;-64
2021/11/15 09:14:21;;;;;;;22.42;9.82;;;;;;;4.73;100.00;97010.44;4975808;28;20072;-64
2021/11/15 09:16:48;;;;;;;18.83;9.15;;;;;;;4.87;100.00;97017.63;4976795;28;20058;-64
2021/11/15 09:19:15;;;;;;;18.30;9.13;;;;;;;4.70;100.00;97007.56;4978691;28;20042;-64
2021/11/15 09:21:41;;;;;;;22.88;13.20;;;;;;;4.50;100.00;97009.00;4981045;28;20050;-64
2021/11/15 09:24:07;;;;;;;22.05;9.60;;;;;;;4.72;100.00;96997.22;4974746;28;20427;-64
2021/11/15 09:26:33;;;;;;;23.10;11.07;;;;;;;4.75;100.00;97023.69;4982626;28;20042;-64
2021/11/15 09:28:59;;;;;;;20.08;9.48;;;;;;;4.68;100.00;97010.63;4981984;28;20811;-63
2021/11/15 09:31:26;;;;;;;20.30;10.38;;;;;;;4.69;100.00;96998.63;4976291;28;20050;-64
2021/11/15 09:33:53;;;;;;;21.65;10.57;;;;;;;4.69;100.00;97000.56;4978922;28;20073;-62
2021/11/15 09:36:23;;;;;;;23.67;10.75;;;;;;;4.71;100.00;96993.69;4972650;28;20046;-63
2021/11/15 09:38:54;;;;;;;23.85;9.95;;;;;;;4.85;100.00;97003.56;4980272;28;20046;-63
2021/11/15 09:41:20;;;;;;;21.25;10.15;;;;;;;5.01;100.00;96995.72;4974502;28;20050;-64
2021/11/15 09:43:46;;;;;;;23.55;11.80;;;;;;;4.99;100.00;97004.19;4978843;28;20042;-65
2021/11/15 09:46:18;;;;;;;23.05;10.77;;;;;;;4.81;100.00;97002.59;4981204;28;20047;-65
2021/11/15 09:48:49;;;;;;;31.08;12.50;;;;;;;4.78;100.00;97004.84;4990378;28;20492;-64
2021/11/15 09:51:15;;;;;;;21.33;10.77;;;;;;;4.92;100.00;97004.69;4982240;28;20089;-63
2021/11/15 09:53:41;;;;;;;21.92;9.50;;;;;;;4.86;100.00;96997.00;4979484;28;20042;-64
2021/11/15 09:56:10;;;;;;;19.95;9.75;;;;;;;4.90;100.00;96998.78;4975797;28;20038;-64
2021/11/15 09:58:37;;;;;;;20.80;10.00;;;;;;;4.84;100.00;97016.31;4980401;28;20591;-63
2021/11/15 10:01:05;;;;;;;18.33;9.13;;;;;;;4.95;100.00;97008.66;4975550;28;20069;-61
2021/11/15 10:03:32;;;;;;;20.75;10.30;;;;;;;4.99;100.00;97006.91;4979123;28;20046;-64
2021/11/15 10:05:57;;;;;;;18.45;9.43;;;;;;;5.19;100.00;97010.06;4980218;28;20038;-64
2021/11/15 10:08:23;;;;;;;17.70;9.13;;;;;;;5.02;100.00;97011.66;4974370;28;20516;-64
2021/11/15 10:10:56;;;;;;;18.90;9.98;;;;;;;4.98;100.00;97013.44;4978452;28;20050;-63
2021/11/15 10:13:31;;;;;;;25.60;11.70;;;;;;;5.02;100.00;97010.88;4978524;28;20522;-64
2021/11/15 10:16:00;;;;;;;19.75;9.70;;;;;;;4.92;100.00;97010.09;4986384;28;20053;-64
2021/11/15 10:18:30;;;;;;;15.90;8.30;;;;;;;4.90;100.00;97000.69;4981503;28;20046;-64
2021/11/15 10:20:56;;;;;;;17.88;9.00;;;;;;;4.95;100.00;97009.47;4985147;28;20042;-64
2021/11/15 10:23:29;;;;;;;20.80;11.27;;;;;;;5.07;100.00;96999.84;4981824;28;20156;-65
2021/11/15 10:25:59;;;;;;;18.25;8.90;;;;;;;5.04;100.00;97004.03;4984734;28;20707;-63
2021/11/15 10:28:25;;;;;;;17.15;9.52;;;;;;;4.98;100.00;96999.88;4981891;28;20050;-67
2021/11/15 10:30:51;;;;;;;20.38;9.13;;;;;;;5.10;100.00;97015.50;4986627;28;20054;-61
2021/11/15 10:33:18;;;;;;;15.82;8.88;;;;;;;5.05;100.00;97008.31;4985235;28;20054;-64
2021/11/15 10:35:46;;;;;;;18.35;9.98;;;;;;;5.10;100.00;97004.66;4986587;28;20039;-64
2021/11/15 10:38:13;;;;;;;17.77;9.80;;;;;;;5.02;100.00;97000.03;4977447;28;20042;-64
2021/11/15 10:40:39;;;;;;;20.00;9.35;;;;;;;5.29;100.00;97006.97;4987245;28;20411;-63
2021/11/15 10:43:09;;;;;;;16.02;7.82;;;;;;;5.42;100.00;97006.00;4979359;28;20054;-62
2021/11/15 10:45:38;;;;;;;16.35;8.05;;;;;;;5.38;100.00;96998.81;4986967;28;20115;-63
2021/11/15 10:48:10;;;;;;;15.88;9.20;;;;;;;5.35;100.00;96992.13;4981469;28;20066;-60
2021/11/15 10:50:53;;;;;;;15.50;7.80;;;;;;;5.59;100.00;96988.81;4990015;28;20144;-63
2021/11/15 10:53:36;;;;;;;13.13;6.80;;;;;;;5.77;100.00;96975.94;4979127;28;20115;-63
2021/11/15 10:59:15;;;;;;;16.33;8.38;;;;;;;5.53;100.00;96971.09;4978340;28;20054;-64
2021/11/15 11:01:40;;;;;;;15.40;8.38;;;;;;;5.70;100.00;96975.66;4985261;28;20432;-63
2021/11/15 11:04:16;;;;;;;15.00;7.43;;;;;;;5.68;100.00;96965.09;4978983;28;20078;-62
2021/11/15 11:07:06;;;;;;;12.82;6.88;;;;;;;5.86;100.00;96968.50;4985333;28;20050;-64
2021/11/15 11:09:40;;;;;;;13.70;8.02;;;;;;;5.60;99.97;96955.09;4982325;28;20050;-64
2021/11/15 11:12:09;;;;;;;14.00;8.55;;;;;;;5.63;100.00;96972.66;4974780;28;20092;-64
2021/11/15 11:14:35;;;;;;;14.02;7.18;;;;;;;5.45;100.00;96966.50;4984069;28;20399;-63
2021/11/15 11:17:05;;;;;;;13.73;7.35;;;;;;;5.55;100.00;96955.28;4991009;28;20519;-63
2021/11/15 11:22:12;;;;;;;15.32;7.30;;;;;;;6.09;98.13;96955.44;4984036;28;20435;-63
2021/11/15 11:24:58;;;;;;;15.70;8.63;;;;;;;5.61;100.00;96950.44;4979305;28;20479;-63